Time;durP1;ratioP1;P1;durP2;ratioP2;P2;SDS_P1;SDS_P2;PMS_P1;PMS_P2;Temp;Humidity;BMP_temperature;BMP_pressure;BME280_temperature;BME280_humidity;BME280_pressure;Samples;Min_cycle;Max_cycle;Signal;HPM_P1;HPM_P2
2021/07/16 00:01:12;;;;;;;;;;;;;;;16.98;80.62;100278.00;4997634;28;20052;-65
2021/07/16 00:03:56;;;;;;;;;;;;;;;16.99;80.73;100281.47;4997428;28;19925;-65
2021/07/16 00:06:45;;;;;;;;;;;;;;;16.99;80.57;100289.31;4996792;28;19925;-65
2021/07/16 00:09:32;;;;;;;;;;;;;;;16.98;80.63;100279.72;4996571;28;19952;-66
2021/07/16 00:12:18;;;;;;;;;;;;;;;16.96;80.64;100284.13;4997312;28;19929;-66
2021/07/16 00:15:07;;;;;;;;;;;;;;;16.97;80.67;100291.13;4997314;28;19923;-65
2021/07/16 00:17:56;;;;;;;;;;;;;;;16.97;80.47;100289.34;4997025;28;19964;-65
2021/07/16 00:20:44;;;;;;;;;;;;;;;16.97;80.64;100285.88;4997117;28;20448;-66
2021/07/16 00:23:39;;;;;;;;;;;;;;;16.98;80.53;100292.81;4997571;28;19924;-65
2021/07/16 00:26:25;;;;;;;;;;;;;;;16.96;80.72;100290.22;4995512;28;19924;-65
2021/07/16 00:29:12;;;;;;;;;;;;;;;16.97;80.56;100299.81;4996123;28;19925;-65
2021/07/16 00:31:56;;;;;;;;;;;;;;;16.96;80.55;100300.69;4996399;28;19972;-65
2021/07/16 00:34:41;;;;;;;;;;;;;;;16.96;80.59;100302.47;4996836;28;20285;-65
2021/07/16 00:37:24;;;;;;;;;;;;;;;16.96;80.70;100297.22;4994647;28;19971;-65
2021/07/16 00:40:12;;;;;;;;;;;;;;;16.93;80.71;100298.06;4995050;28;19924;-64
2021/07/16 00:42:56;;;;;;;;;;;;;;;16.94;80.56;100307.66;4996382;28;19929;-66
2021/07/16 00:45:51;;;;;;;;;;;;;;;16.95;80.65;100309.44;4995559;28;20407;-65
2021/07/16 00:48:41;;;;;;;;;;;;;;;16.95;80.40;100311.19;4996646;28;19928;-65
2021/07/16 00:51:27;;;;;;;;;;;;;;;16.95;80.68;100314.66;4995958;28;19925;-65
2021/07/16 00:54:17;;;;;;;;;;;;;;;16.95;80.60;100308.56;4995439;28;19941;-65
2021/07/16 00:57:10;;;;;;;;;;;;;;;16.94;80.76;100312.03;4996199;28;19925;-65
2021/07/16 00:59:57;;;;;;;;;;;;;;;16.94;80.63;100312.03;4996593;28;20007;-65
2021/07/16 01:02:45;;;;;;;;;;;;;;;16.94;80.53;100317.28;4996532;28;20284;-65
2021/07/16 01:05:35;;;;;;;;;;;;;;;16.92;80.53;100309.41;4996325;28;19948;-65
2021/07/16 01:08:25;;;;;;;;;;;;;;;16.92;80.45;100317.25;4996622;28;19968;-65
2021/07/16 01:11:17;;;;;;;;;;;;;;;16.92;80.64;100317.25;4996581;28;19925;-66
2021/07/16 01:14:02;;;;;;;;;;;;;;;16.92;80.54;100322.50;4995840;28;19924;-65
2021/07/16 01:16:46;;;;;;;;;;;;;;;16.90;80.48;100311.16;4996498;28;19968;-65
2021/07/16 01:19:49;;;;;;;;;;;;;;;16.90;80.57;100319.91;4996583;28;19972;-65
2021/07/16 01:22:39;;;;;;;;;;;;;;;16.88;80.56;100313.81;4995943;28;20012;-65
2021/07/16 01:25:31;;;;;;;;;;;;;;;16.89;80.56;100312.94;4994925;28;20017;-67
2021/07/16 01:28:18;;;;;;;;;;;;;;;16.89;80.57;100319.94;4996389;28;19928;-65
2021/07/16 01:31:05;;;;;;;;;;;;;;;16.89;80.40;100319.94;4996197;28;19964;-64
2021/07/16 01:33:54;;;;;;;;;;;;;;;16.89;80.61;100319.94;4994502;28;19925;-65
2021/07/16 01:36:43;;;;;;;;;;;;;;;16.89;80.43;100319.94;4994491;28;19923;-66
2021/07/16 01:39:27;;;;;;;;;;;;;;;16.87;80.43;100322.53;4994879;28;20059;-67
2021/07/16 01:42:16;;;;;;;;;;;;;;;16.87;80.52;100324.28;4995155;28;20056;-64
2021/07/16 01:45:08;;;;;;;;;;;;;;;16.88;80.57;100318.19;4995559;28;19925;-66
2021/07/16 01:48:02;;;;;;;;;;;;;;;16.87;80.62;100322.53;4994845;28;19924;-65
2021/07/16 01:50:54;;;;;;;;;;;;;;;16.88;80.52;100331.28;4995729;28;20443;-66
2021/07/16 01:53:47;;;;;;;;;;;;;;;16.87;80.38;100330.38;4994591;28;19925;-64
2021/07/16 01:56:37;;;;;;;;;;;;;;;16.87;80.39;100325.16;4994801;28;19925;-64
2021/07/16 01:59:33;;;;;;;;;;;;;;;16.87;80.64;100324.28;4995346;28;20289;-65
2021/07/16 02:02:17;;;;;;;;;;;;;;;16.87;80.44;100326.91;4994432;28;19987;-65
2021/07/16 02:05:07;;;;;;;;;;;;;;;16.86;80.52;100333.03;4995322;28;19968;-65
2021/07/16 02:07:59;;;;;;;;;;;;;;;16.84;80.44;100327.78;4994969;28;20340;-65
2021/07/16 02:10:48;;;;;;;;;;;;;;;16.84;80.47;100325.16;4994332;28;19925;-66
2021/07/16 02:13:38;;;;;;;;;;;;;;;16.85;80.47;100329.53;4994048;28;19925;-66
2021/07/16 02:16:27;;;;;;;;;;;;;;;16.83;80.43;100328.66;4994753;28;19925;-65
2021/07/16 02:19:17;;;;;;;;;;;;;;;16.83;80.38;100322.56;4994134;28;19967;-65
2021/07/16 02:22:10;;;;;;;;;;;;;;;16.81;80.42;100321.69;4995192;28;20423;-65
2021/07/16 02:24:59;;;;;;;;;;;;;;;16.81;80.46;100321.69;4995006;28;19972;-67
2021/07/16 02:27:47;;;;;;;;;;;;;;;16.81;80.45;100312.13;4993904;28;19973;-65
2021/07/16 02:30:35;;;;;;;;;;;;;;;16.80;80.43;100318.22;4993972;28;19925;-65
2021/07/16 02:33:21;;;;;;;;;;;;;;;16.78;80.56;100322.59;4995262;28;19924;-65
2021/07/16 02:36:12;;;;;;;;;;;;;;;16.77;80.63;100310.38;4994615;28;19928;-65
2021/07/16 02:39:01;;;;;;;;;;;;;;;16.78;80.36;100312.13;4994483;28;19928;-65
2021/07/16 02:41:53;;;;;;;;;;;;;;;16.77;80.41;100307.78;4994821;28;20015;-65
2021/07/16 02:44:45;;;;;;;;;;;;;;;16.78;80.50;100311.25;4994641;28;19979;-66
2021/07/16 02:47:34;;;;;;;;;;;;;;;16.78;80.50;100316.47;4993784;28;19929;-65
2021/07/16 02:50:28;;;;;;;;;;;;;;;16.77;80.38;100314.72;4994651;28;20009;-65
2021/07/16 02:53:16;;;;;;;;;;;;;;;16.78;80.46;100324.31;4994418;28;19940;-65
2021/07/16 02:56:00;;;;;;;;;;;;;;;16.78;80.32;100326.94;4993533;28;19924;-65
2021/07/16 02:58:44;;;;;;;;;;;;;;;16.78;80.38;100332.19;4994187;28;20059;-65
2021/07/16 03:01:28;;;;;;;;;;;;;;;16.77;80.21;100335.66;4993264;28;19925;-65
2021/07/16 03:04:23;;;;;;;;;;;;;;;16.76;80.50;100329.56;4994157;28;19925;-65
2021/07/16 03:07:13;;;;;;;;;;;;;;;16.74;80.43;100342.66;4994313;28;19984;-65
2021/07/16 03:10:05;;;;;;;;;;;;;;;16.75;80.22;100341.78;4994405;28;20396;-64
2021/07/16 03:12:56;;;;;;;;;;;;;;;16.74;80.23;100340.03;4994181;28;19924;-66
2021/07/16 03:15:46;;;;;;;;;;;;;;;16.74;80.52;100342.66;4994309;28;19940;-65
2021/07/16 03:18:35;;;;;;;;;;;;;;;16.74;80.19;100340.03;4994342;28;19925;-66
2021/07/16 03:21:27;;;;;;;;;;;;;;;16.74;80.41;100345.28;4994334;28;19950;-66
2021/07/16 03:24:11;;;;;;;;;;;;;;;16.74;80.47;100347.88;4994354;28;19925;-66
2021/07/16 03:26:55;;;;;;;;;;;;;;;16.75;80.30;100340.91;4993262;28;19929;-65
2021/07/16 03:29:42;;;;;;;;;;;;;;;16.75;80.44;100338.31;4994079;28;19924;-67
2021/07/16 03:32:31;;;;;;;;;;;;;;;16.74;80.29;100347.88;4994201;28;19968;-65
2021/07/16 03:35:21;;;;;;;;;;;;;;;16.73;80.25;100348.78;4993332;28;19977;-66
2021/07/16 03:38:07;;;;;;;;;;;;;;;16.75;80.30;100348.78;4994023;28;19925;-65
2021/07/16 03:41:01;;;;;;;;;;;;;;;16.74;80.29;100354.88;4993212;28;19925;-65
2021/07/16 03:43:47;;;;;;;;;;;;;;;16.74;80.28;100352.25;4993718;28;19944;-65
2021/07/16 03:46:37;;;;;;;;;;;;;;;16.73;80.41;100346.19;4993971;28;20396;-66
2021/07/16 03:49:29;;;;;;;;;;;;;;;16.73;80.46;100358.38;4993348;28;19925;-65
2021/07/16 03:52:21;;;;;;;;;;;;;;;16.73;80.26;100371.47;4993080;28;20387;-65
2021/07/16 03:55:08;;;;;;;;;;;;;;;16.73;80.25;100363.59;4994190;28;20459;-64
2021/07/16 03:57:54;;;;;;;;;;;;;;;16.73;80.29;100369.72;4994052;28;19924;-66
2021/07/16 04:00:44;;;;;;;;;;;;;;;16.72;80.26;100368.00;4997035;28;20336;-65
2021/07/16 04:03:36;;;;;;;;;;;;;;;16.73;80.42;100371.47;4997863;28;19968;-65
2021/07/16 04:06:25;;;;;;;;;;;;;;;16.72;80.36;100373.22;4997680;28;19924;-65
2021/07/16 04:09:28;;;;;;;;;;;;;;;16.72;80.24;100377.56;4997552;28;19965;-65
2021/07/16 04:12:21;;;;;;;;;;;;;;;16.71;80.23;100375.81;4997037;28;19949;-65
2021/07/16 04:15:10;;;;;;;;;;;;;;;16.71;80.38;100383.69;4996983;28;19925;-66
2021/07/16 04:17:58;;;;;;;;;;;;;;;16.71;80.34;100383.69;4997199;28;19967;-67
2021/07/16 04:20:42;;;;;;;;;;;;;;;16.71;80.24;100389.78;4996524;28;19959;-66
2021/07/16 04:23:26;;;;;;;;;;;;;;;16.71;80.39;100392.41;4996308;28;19944;-65
2021/07/16 04:26:18;;;;;;;;;;;;;;;16.71;80.39;100381.06;4996261;28;19993;-66
2021/07/16 04:29:08;;;;;;;;;;;;;;;16.71;80.30;100395.03;4997584;28;19925;-65
2021/07/16 04:32:00;;;;;;;;;;;;;;;16.70;80.20;100390.66;4997049;28;19924;-65
2021/07/16 04:34:55;;;;;;;;;;;;;;;16.70;80.34;100389.78;4997480;28;20019;-65
2021/07/16 04:37:45;;;;;;;;;;;;;;;16.70;80.54;100395.03;4997395;28;19924;-65
2021/07/16 04:40:38;;;;;;;;;;;;;;;16.69;80.31;100394.16;4996979;28;19925;-65
2021/07/16 04:43:27;;;;;;;;;;;;;;;16.68;80.22;100387.19;4996958;28;19964;-65
2021/07/16 04:46:11;;;;;;;;;;;;;;;16.67;80.03;100390.69;4995804;28;20443;-65
2021/07/16 04:48:55;;;;;;;;;;;;;;;16.67;80.28;100403.75;4997212;28;19925;-64
2021/07/16 04:51:43;;;;;;;;;;;;;;;16.67;80.30;100405.50;4995784;28;19972;-65
2021/07/16 04:54:35;;;;;;;;;;;;;;;16.67;80.23;100411.59;4996595;28;19925;-65
2021/07/16 04:57:25;;;;;;;;;;;;;;;16.67;80.31;100416.84;4996209;28;19977;-65
2021/07/16 05:00:14;;;;;;;;;;;;;;;16.67;80.24;100415.94;4996285;28;20289;-65
2021/07/16 05:03:09;;;;;;;;;;;;;;;16.66;80.15;100411.63;4996491;28;19925;-65
2021/07/16 05:06:03;;;;;;;;;;;;;;;16.66;80.09;100412.47;4995861;28;19922;-66
2021/07/16 05:08:52;;;;;;;;;;;;;;;16.65;80.31;100418.59;4996451;28;20017;-65
2021/07/16 05:11:36;;;;;;;;;;;;;;;16.65;80.07;100421.22;4995437;28;20068;-65
2021/07/16 05:14:20;;;;;;;;;;;;;;;16.65;80.30;100423.81;4996253;28;19933;-65
2021/07/16 05:17:04;;;;;;;;;;;;;;;16.65;80.46;100423.81;4996403;28;19924;-65
2021/07/16 05:19:48;;;;;;;;;;;;;;;16.64;80.02;100422.06;4996162;28;19925;-66
2021/07/16 05:22:40;;;;;;;;;;;;;;;16.64;80.06;100423.84;4995736;28;19967;-65
2021/07/16 05:25:24;;;;;;;;;;;;;;;16.64;80.23;100427.31;4995851;28;19968;-65
2021/07/16 05:28:16;;;;;;;;;;;;;;;16.64;80.08;100426.47;4995286;28;19932;-66
2021/07/16 05:31:06;;;;;;;;;;;;;;;16.63;80.21;100433.41;4995790;28;19924;-65
2021/07/16 05:33:58;;;;;;;;;;;;;;;16.64;80.32;100431.69;4995811;28;20432;-65
2021/07/16 05:36:48;;;;;;;;;;;;;;;16.64;80.18;100436.94;4996308;28;20384;-65
2021/07/16 05:39:37;;;;;;;;;;;;;;;16.63;80.22;100435.19;4995421;28;19929;-64
2021/07/16 05:42:23;;;;;;;;;;;;;;;16.63;80.05;100441.28;4994487;28;19925;-65
2021/07/16 05:45:08;;;;;;;;;;;;;;;16.62;80.19;100443.91;4996170;28;19963;-65
2021/07/16 05:47:59;;;;;;;;;;;;;;;16.63;79.99;100435.19;4996035;28;19971;-65
2021/07/16 05:50:52;;;;;;;;;;;;;;;16.63;80.14;100446.50;4995470;28;20078;-66
2021/07/16 05:53:41;;;;;;;;;;;;;;;16.62;80.00;100443.91;4995132;28;20471;-65
2021/07/16 05:56:39;;;;;;;;;;;;;;;16.62;80.12;100443.91;4995397;28;19924;-65
2021/07/16 05:59:29;;;;;;;;;;;;;;;16.61;80.02;100445.63;4994168;28;20356;-64
2021/07/16 06:02:19;;;;;;;;;;;;;;;16.62;80.11;100446.53;4994950;28;19925;-66
2021/07/16 06:05:03;;;;;;;;;;;;;;;16.61;80.16;100448.25;4995498;28;19925;-65
2021/07/16 06:07:47;;;;;;;;;;;;;;;16.61;80.25;100442.16;4995478;28;20004;-66
2021/07/16 06:10:31;;;;;;;;;;;;;;;16.59;79.96;100443.03;4995363;28;19940;-65
2021/07/16 06:13:26;;;;;;;;;;;;;;;16.58;80.08;100449.13;4995281;28;19924;-64
2021/07/16 06:16:15;;;;;;;;;;;;;;;16.57;80.04;100447.38;4994569;28;19925;-65
2021/07/16 06:19:07;;;;;;;;;;;;;;;16.56;80.06;100450.88;4993685;28;19968;-65
2021/07/16 06:21:57;;;;;;;;;;;;;;;16.55;80.22;100454.38;4994496;28;20447;-65
2021/07/16 06:24:49;;;;;;;;;;;;;;;16.55;79.95;100451.75;4994918;28;19925;-65
2021/07/16 06:27:44;;;;;;;;;;;;;;;16.54;80.20;100449.16;4993862;28;20015;-66
2021/07/16 06:30:31;;;;;;;;;;;;;;;16.54;79.92;100457.00;4994911;28;19925;-65
2021/07/16 06:33:17;;;;;;;;;;;;;;;16.53;80.22;100457.88;4993662;28;19925;-65
2021/07/16 06:36:01;;;;;;;;;;;;;;;16.54;80.15;100457.00;4994511;28;19940;-65
2021/07/16 06:38:45;;;;;;;;;;;;;;;16.52;79.94;100458.75;4994545;28;19967;-65
2021/07/16 06:41:31;;;;;;;;;;;;;;;16.51;80.04;100467.47;4994639;28;20380;-65
2021/07/16 06:44:24;;;;;;;;;;;;;;;16.51;79.94;100470.09;4993544;28;19976;-65
2021/07/16 06:47:13;;;;;;;;;;;;;;;16.51;79.96;100463.09;4994000;28;19940;-65
2021/07/16 06:50:06;;;;;;;;;;;;;;;16.51;79.94;100462.22;4993638;28;19924;-64
2021/07/16 06:52:50;;;;;;;;;;;;;;;16.51;79.90;100462.22;4993338;28;19968;-65
2021/07/16 06:55:36;;;;;;;;;;;;;;;16.49;79.99;100469.22;4993692;28;19925;-65
2021/07/16 06:58:20;;;;;;;;;;;;;;;16.49;79.99;100469.22;4994200;28;19987;-65
2021/07/16 07:01:04;;;;;;;;;;;;;;;16.50;80.16;100478.81;4994159;28;19972;-65
2021/07/16 07:03:48;;;;;;;;;;;;;;;16.48;79.95;100491.00;4995005;28;19928;-65
2021/07/16 07:06:37;;;;;;;;;;;;;;;16.48;80.04;100481.44;4994535;28;20385;-65
2021/07/16 07:09:28;;;;;;;;;;;;;;;16.48;79.95;100488.41;4994029;28;20411;-65
2021/07/16 07:12:17;;;;;;;;;;;;;;;16.48;80.14;100491.91;4994000;28;20376;-65
2021/07/16 07:15:04;;;;;;;;;;;;;;;16.48;79.91;100488.41;4994395;28;20297;-65
2021/07/16 07:17:56;;;;;;;;;;;;;;;16.48;80.00;100496.25;4994610;28;20428;-65
2021/07/16 07:20:50;;;;;;;;;;;;;;;16.46;80.03;100487.53;4993480;28;19925;-66
2021/07/16 07:23:43;;;;;;;;;;;;;;;16.45;80.19;100491.91;4993870;28;19926;-64
2021/07/16 07:26:30;;;;;;;;;;;;;;;16.45;79.94;100494.50;4994512;28;19964;-65
2021/07/16 07:29:20;;;;;;;;;;;;;;;16.44;79.97;100495.38;4993966;28;19925;-65
2021/07/16 07:32:10;;;;;;;;;;;;;;;16.44;79.90;100496.25;4994279;28;19999;-64
2021/07/16 07:34:59;;;;;;;;;;;;;;;16.44;80.15;100496.25;4996163;28;19925;-65
2021/07/16 07:37:52;;;;;;;;;;;;;;;16.46;79.82;100500.59;4997993;28;19948;-65
2021/07/16 07:40:45;;;;;;;;;;;;;;;16.43;80.07;100501.47;4998400;28;20077;-65
2021/07/16 07:43:33;;;;;;;;;;;;;;;16.42;80.12;100503.25;4997591;28;20443;-64
2021/07/16 07:46:23;;;;;;;;;;;;;;;16.43;79.96;100506.72;4996748;28;19991;-65
2021/07/16 07:49:13;;;;;;;;;;;;;;;16.43;80.00;100514.56;4997462;28;20037;-65
2021/07/16 07:51:57;;;;;;;;;;;;;;;16.42;80.00;100516.31;4997648;28;19928;-65
2021/07/16 07:54:41;;;;;;;;;;;;;;;16.42;80.04;100513.72;4997749;28;19964;-65
2021/07/16 07:57:25;;;;;;;;;;;;;;;16.42;79.90;100513.72;4997022;28;19968;-64
2021/07/16 08:00:12;;;;;;;;;;;;;;;16.42;79.84;100526.78;4997737;28;19925;-65
2021/07/16 08:02:59;;;;;;;;;;;;;;;16.42;79.79;100526.78;4997652;28;20002;-65
2021/07/16 08:05:45;;;;;;;;;;;;;;;16.43;80.05;100528.50;4996405;28;19940;-66
2021/07/16 08:08:36;;;;;;;;;;;;;;;16.43;79.89;100518.03;4997603;28;19925;-65
2021/07/16 08:11:25;;;;;;;;;;;;;;;16.42;79.95;100526.78;4997453;28;20288;-64
2021/07/16 08:14:17;;;;;;;;;;;;;;;16.42;79.87;100526.78;4996523;28;19940;-65
2021/07/16 08:17:01;;;;;;;;;;;;;;;16.41;79.91;100532.88;4996556;28;19948;-64
2021/07/16 08:19:45;;;;;;;;;;;;;;;16.43;79.81;100540.72;4996367;28;20012;-65
2021/07/16 08:22:29;;;;;;;;;;;;;;;16.42;80.03;100544.22;4996829;28;20021;-65
2021/07/16 08:25:21;;;;;;;;;;;;;;;16.42;79.84;100544.22;4997013;28;19925;-65
2021/07/16 08:28:05;;;;;;;;;;;;;;;16.43;79.82;100548.56;4996039;28;20399;-65
2021/07/16 08:30:51;;;;;;;;;;;;;;;16.42;79.94;100547.72;4996990;28;19956;-65
2021/07/16 08:33:41;;;;;;;;;;;;;;;16.43;79.97;100543.34;4996602;28;19964;-65
2021/07/16 08:36:31;;;;;;;;;;;;;;;16.43;79.77;100556.41;4997445;28;20428;-65
2021/07/16 08:39:21;;;;;;;;;;;;;;;16.42;79.94;100550.31;4995737;28;19941;-66
2021/07/16 08:42:12;;;;;;;;;;;;;;;16.44;80.02;100560.78;4996178;28;19975;-66
2021/07/16 08:44:59;;;;;;;;;;;;;;;16.44;79.90;100571.25;4995602;28;19944;-65
2021/07/16 08:47:45;;;;;;;;;;;;;;;16.43;79.85;100572.97;4996314;28;19924;-65
2021/07/16 08:50:35;;;;;;;;;;;;;;;16.44;79.95;100573.84;4996366;28;19976;-65
2021/07/16 08:53:22;;;;;;;;;;;;;;;16.44;79.82;100577.34;4996578;28;19925;-65
2021/07/16 08:56:11;;;;;;;;;;;;;;;16.44;79.93;100574.72;4997223;28;20124;-66
2021/07/16 08:59:01;;;;;;;;;;;;;;;16.44;79.92;100582.56;4996608;28;19964;-64
2021/07/16 09:01:46;;;;;;;;;;;;;;;16.44;79.70;100574.72;4995221;28;20630;-65
2021/07/16 09:04:38;;;;;;;;;;;;;;;16.44;79.83;100585.19;4996824;28;20015;-65
2021/07/16 09:07:30;;;;;;;;;;;;;;;16.44;79.83;100582.56;4995320;28;19987;-64
2021/07/16 09:10:17;;;;;;;;;;;;;;;16.44;79.69;100579.94;4996426;28;19948;-66
2021/07/16 09:13:03;;;;;;;;;;;;;;;16.46;79.94;100581.69;4996221;28;19979;-64
2021/07/16 09:15:52;;;;;;;;;;;;;;;16.45;79.73;100583.44;4996153;28;20090;-64
2021/07/16 09:18:41;;;;;;;;;;;;;;;16.47;79.85;100591.28;4994901;28;19953;-64
2021/07/16 09:21:32;;;;;;;;;;;;;;;16.47;79.79;100588.66;4996427;28;19956;-65
2021/07/16 09:24:28;;;;;;;;;;;;;;;16.46;79.75;100590.44;4996320;28;19925;-65
2021/07/16 09:27:30;;;;;;;;;;;;;;;16.46;79.72;100592.16;4995660;28;19945;-65
2021/07/16 09:30:21;;;;;;;;;;;;;;;16.46;79.85;100590.44;4995087;28;19924;-65
2021/07/16 09:33:05;;;;;;;;;;;;;;;16.46;79.78;100586.94;4995717;28;19972;-65
2021/07/16 09:35:49;;;;;;;;;;;;;;;16.45;79.96;100591.31;4996081;28;19925;-65
2021/07/16 09:38:34;;;;;;;;;;;;;;;16.46;79.80;100584.31;4996014;28;19932;-64
2021/07/16 09:41:18;;;;;;;;;;;;;;;16.45;79.90;100593.91;4994835;28;20381;-65
2021/07/16 09:44:03;;;;;;;;;;;;;;;16.46;79.80;100595.66;4996133;28;19925;-65
2021/07/16 09:47:07;;;;;;;;;;;;;;;16.44;79.85;100598.25;4995952;28;19945;-65
2021/07/16 09:50:09;;;;;;;;;;;;;;;16.44;79.83;100587.78;4995292;28;19964;-65
2021/07/16 09:53:30;;;;;;;;;;;;;;;16.43;79.74;100583.44;4995249;28;19964;-66
2021/07/16 09:56:20;;;;;;;;;;;;;;;16.42;79.82;100586.94;4994102;28;20012;-65
2021/07/16 09:59:17;;;;;;;;;;;;;;;16.43;79.86;100582.56;4994257;28;19925;-66
2021/07/16 10:02:02;;;;;;;;;;;;;;;16.44;79.75;100586.94;4995063;28;19925;-65
2021/07/16 10:04:47;;;;;;;;;;;;;;;16.43;79.76;100583.44;4994936;28;19925;-65
2021/07/16 10:07:32;;;;;;;;;;;;;;;16.43;79.72;100585.19;4994339;28;19920;-67
2021/07/16 10:10:17;;;;;;;;;;;;;;;16.43;79.78;100590.41;4995386;28;19925;-65
2021/07/16 10:13:01;;;;;;;;;;;;;;;16.43;79.88;100593.91;4995245;28;19924;-65
2021/07/16 10:15:45;;;;;;;;;;;;;;;16.42;79.94;100596.53;4995394;28;20003;-65
2021/07/16 10:18:32;;;;;;;;;;;;;;;16.43;79.83;100601.75;4995263;28;19980;-65
2021/07/16 10:21:16;;;;;;;;;;;;;;;16.44;79.84;100605.25;4994154;28;20431;-65
2021/07/16 10:23:59;;;;;;;;;;;;;;;16.44;79.87;100608.72;4995479;28;19925;-65
2021/07/16 10:26:44;;;;;;;;;;;;;;;16.43;79.67;100612.22;4995179;28;19923;-66
2021/07/16 10:29:34;;;;;;;;;;;;;;;16.41;79.92;100616.59;4994825;28;19972;-65
2021/07/16 10:32:50;;;;;;;;;;;;;;;16.43;79.64;100619.19;4995013;28;19964;-65
2021/07/16 10:35:35;;;;;;;;;;;;;;;16.42;79.70;100617.44;4977276;28;19995;-65
2021/07/16 10:38:31;;;;;;;;;;;;;;;16.43;79.74;100624.44;4994393;28;20348;-64
2021/07/16 10:41:31;;;;;;;;;;;;;;;16.43;79.86;100616.59;4993817;28;19923;-65
2021/07/16 10:44:35;;;;;;;;;;;;;;;16.43;79.87;100622.66;4994334;28;20304;-65
2021/07/16 10:47:40;;;;;;;;;;;;;;;16.43;79.90;100627.03;4994746;28;20009;-66
2021/07/16 10:50:24;;;;;;;;;;;;;;;16.46;79.60;100627.06;4994310;28;19972;-65
2021/07/16 10:53:14;;;;;;;;;;;;;;;16.46;79.85;100632.28;4994366;28;19933;-65
2021/07/16 10:56:00;;;;;;;;;;;;;;;16.47;79.73;100627.91;4993913;28;20078;-66
2021/07/16 10:58:45;;;;;;;;;;;;;;;16.47;79.83;100635.75;4994838;28;20013;-66
2021/07/16 11:01:31;;;;;;;;;;;;;;;16.47;79.62;100641.00;4994166;28;20012;-65
2021/07/16 11:04:29;;;;;;;;;;;;;;;16.47;79.74;100643.59;4993495;28;19925;-64
2021/07/16 11:07:32;;;;;;;;;;;;;;;16.47;79.58;100636.66;4994429;28;19925;-65
2021/07/16 11:10:52;;;;;;;;;;;;;;;16.47;79.81;100631.41;4993927;28;20340;-65
2021/07/16 11:13:37;;;;;;;;;;;;;;;16.48;79.61;100641.00;4978114;28;19973;-65
2021/07/16 11:16:25;;;;;;;;;;;;;;;16.48;79.73;100642.75;4993830;28;20404;-64
2021/07/16 11:19:08;;;;;;;;;;;;;;;16.49;79.58;100644.50;4994365;28;19964;-66
2021/07/16 11:21:53;;;;;;;;;;;;;;;16.48;79.71;100640.13;4993923;28;20019;-64
2021/07/16 11:24:40;;;;;;;;;;;;;;;16.47;79.52;100649.72;4993841;28;19976;-65
2021/07/16 11:27:26;;;;;;;;;;;;;;;16.48;79.77;100653.22;4993712;28;19967;-64
2021/07/16 11:30:14;;;;;;;;;;;;;;;16.46;79.74;100647.09;4994234;28;19964;-64
2021/07/16 11:33:03;;;;;;;;;;;;;;;16.46;79.74;100649.72;4993216;28;19924;-64
2021/07/16 11:35:52;;;;;;;;;;;;;;;16.46;79.67;100647.09;4994382;28;20392;-65
2021/07/16 11:38:36;;;;;;;;;;;;;;;16.46;79.29;100644.47;4994207;28;20012;-64
2021/07/16 11:41:36;;;;;;;;;;;;;;;16.46;79.56;100645.38;4994274;28;19972;-64
2021/07/16 11:44:29;;;;;;;;;;;;;;;16.47;79.42;100648.84;4993529;28;20045;-64
2021/07/16 11:47:17;;;;;;;;;;;;;;;16.48;79.65;100645.34;4992981;28;20424;-65
2021/07/16 11:50:03;;;;;;;;;;;;;;;16.48;79.52;100642.75;4993157;28;19968;-65
2021/07/16 11:52:53;;;;;;;;;;;;;;;16.47;79.72;100641.88;4993734;28;19927;-66
2021/07/16 11:55:37;;;;;;;;;;;;;;;16.46;79.54;100644.47;4994408;28;20431;-66
2021/07/16 11:58:26;;;;;;;;;;;;;;;16.47;79.75;100641.88;4994293;28;20413;-64
2021/07/16 12:01:17;;;;;;;;;;;;;;;16.48;79.57;100643.63;4994146;28;19940;-65
2021/07/16 12:04:00;;;;;;;;;;;;;;;16.47;79.58;100656.69;4992964;28;20328;-64
2021/07/16 12:06:53;;;;;;;;;;;;;;;16.48;79.47;100661.06;4993953;28;19928;-65
2021/07/16 12:09:47;;;;;;;;;;;;;;;16.46;79.64;100658.44;4992821;28;19925;-65
2021/07/16 12:12:36;;;;;;;;;;;;;;;16.46;79.41;100662.78;4993233;28;19925;-64
2021/07/16 12:15:27;;;;;;;;;;;;;;;16.46;79.65;100658.44;4993123;28;19924;-65
2021/07/16 12:18:12;;;;;;;;;;;;;;;16.45;79.42;100667.16;4993768;28;19924;-65
2021/07/16 12:20:56;;;;;;;;;;;;;;;16.44;79.44;100668.91;4993976;28;19929;-64
2021/07/16 12:23:52;;;;;;;;;;;;;;;16.46;79.43;100670.63;4997472;28;19941;-64
2021/07/16 12:26:38;;;;;;;;;;;;;;;16.46;79.60;100666.28;4995919;28;19925;-65
2021/07/16 12:29:30;;;;;;;;;;;;;;;16.44;79.47;100670.66;4996273;28;19968;-64
2021/07/16 12:32:17;;;;;;;;;;;;;;;16.46;79.62;100671.53;4995711;28;19924;-65
2021/07/16 12:35:21;;;;;;;;;;;;;;;16.46;79.50;100674.16;4997100;28;19964;-64
2021/07/16 12:38:15;;;;;;;;;;;;;;;16.47;79.62;100670.66;4997012;28;20388;-65
2021/07/16 12:41:07;;;;;;;;;;;;;;;16.47;79.44;100665.44;4995743;28;19925;-64
2021/07/16 12:44:11;;;;;;;;;;;;;;;16.47;79.65;100667.16;4995474;28;20412;-65
2021/07/16 12:47:03;;;;;;;;;;;;;;;16.47;79.60;100669.78;4997280;28;20009;-64
2021/07/16 12:50:03;;;;;;;;;;;;;;;16.47;79.51;100665.44;4996674;28;20075;-66
2021/07/16 12:52:54;;;;;;;;;;;;;;;16.48;79.36;100653.22;4996464;28;20391;-64
2021/07/16 12:55:46;;;;;;;;;;;;;;;16.46;79.64;100658.44;4996285;28;19964;-66
2021/07/16 12:58:36;;;;;;;;;;;;;;;16.47;79.33;100659.31;4995992;28;19924;-64
2021/07/16 13:01:34;;;;;;;;;;;;;;;16.49;79.54;100662.81;4995957;28;20472;-66
2021/07/16 13:04:18;;;;;;;;;;;;;;;16.52;79.38;100665.44;4995058;28;19964;-65
2021/07/16 13:07:02;;;;;;;;;;;;;;;16.53;79.56;100669.78;4995469;28;19924;-64
2021/07/16 13:09:46;;;;;;;;;;;;;;;16.52;79.28;100668.91;4996455;28;19928;-64
2021/07/16 13:12:31;;;;;;;;;;;;;;;16.56;79.35;100677.66;4995902;28;19940;-65
2021/07/16 13:15:18;;;;;;;;;;;;;;;16.55;79.19;100683.75;4996373;28;19960;-64
2021/07/16 13:18:06;;;;;;;;;;;;;;;16.55;79.24;100673.28;4993925;28;19925;-65
2021/07/16 13:20:53;;;;;;;;;;;;;;;16.55;79.12;100675.91;4994959;28;19991;-64
2021/07/16 13:23:38;;;;;;;;;;;;;;;16.55;79.15;100682.00;4995829;28;19928;-63
2021/07/16 13:26:35;;;;;;;;;;;;;;;16.55;79.04;100683.75;4995070;28;19925;-64
2021/07/16 13:29:27;;;;;;;;;;;;;;;16.56;79.16;100688.13;4995228;28;19968;-64
2021/07/16 13:32:13;;;;;;;;;;;;;;;16.58;79.38;100686.38;4994423;28;20053;-64
2021/07/16 13:34:57;;;;;;;;;;;;;;;16.58;79.10;100689.00;4995640;28;20428;-64
2021/07/16 13:37:42;;;;;;;;;;;;;;;16.58;79.31;100682.00;4994994;28;20424;-64
2021/07/16 13:40:31;;;;;;;;;;;;;;;16.57;79.21;100677.66;4995549;28;20007;-64
2021/07/16 13:43:19;;;;;;;;;;;;;;;16.60;79.26;100684.63;4994868;28;20297;-64
2021/07/16 13:46:06;;;;;;;;;;;;;;;16.61;79.17;100675.91;4995331;28;19946;-65
2021/07/16 13:48:50;;;;;;;;;;;;;;;16.63;79.21;100673.31;4993780;28;19925;-64
2021/07/16 13:51:40;;;;;;;;;;;;;;;16.62;79.11;100675.03;4995292;28;20471;-64
2021/07/16 13:54:29;;;;;;;;;;;;;;;16.63;79.09;100678.53;4994362;28;19925;-63
2021/07/16 13:57:15;;;;;;;;;;;;;;;16.64;78.94;100677.66;4994563;28;19925;-65
2021/07/16 14:00:05;;;;;;;;;;;;;;;16.64;79.18;100673.28;4994952;28;20353;-63
2021/07/16 14:02:54;;;;;;;;;;;;;;;16.65;78.92;100663.72;4994590;28;20001;-64
2021/07/16 14:05:40;;;;;;;;;;;;;;;16.65;79.16;100672.41;4994511;28;20331;-64
2021/07/16 14:08:30;;;;;;;;;;;;;;;16.65;79.03;100680.28;4994753;28;19993;-64
2021/07/16 14:11:23;;;;;;;;;;;;;;;16.66;79.14;100674.16;4993953;28;19989;-64
2021/07/16 14:14:12;;;;;;;;;;;;;;;16.66;78.85;100676.78;4994297;28;20336;-64
2021/07/16 14:17:02;;;;;;;;;;;;;;;16.67;79.04;100673.28;4994057;28;19945;-64
2021/07/16 14:19:52;;;;;;;;;;;;;;;16.68;78.84;100684.63;4994041;28;19929;-65
2021/07/16 14:22:38;;;;;;;;;;;;;;;16.69;79.05;100688.97;4994111;28;19965;-64
2021/07/16 14:25:28;;;;;;;;;;;;;;;16.69;79.03;100691.59;4994242;28;19924;-65
2021/07/16 14:28:12;;;;;;;;;;;;;;;16.70;79.05;100688.13;4993870;28;19933;-64